Time;durP1;ratioP1;P1;durP2;ratioP2;P2;SDS_P1;SDS_P2;PMS_P1;PMS_P2;Temp;Humidity;BMP_temperature;BMP_pressure;BME280_temperature;BME280_humidity;BME280_pressure;Samples;Min_cycle;Max_cycle;Signal;HPM_P1;HPM_P2
2023/05/26 00:00:42;;;;;;;1999.90;999.90;;;11.40;84.00;;;;;;5032862;28;20038;-87
2023/05/26 00:03:08;;;;;;;1999.90;999.90;;;11.40;83.60;;;;;;5037154;28;20511;-87
2023/05/26 00:05:39;;;;;;;1999.90;999.90;;;11.50;83.10;;;;;;5040612;28;20112;-84
2023/05/26 00:08:07;;;;;;;1999.90;999.90;;;11.80;81.20;;;;;;5017817;28;20037;-86
2023/05/26 00:10:32;;;;;;;1999.90;999.90;;;11.80;80.70;;;;;;5035658;28;20034;-86
2023/05/26 00:12:58;;;;;;;1999.90;999.90;;;11.90;80.50;;;;;;5036267;28;20500;-85
2023/05/26 00:15:24;;;;;;;1999.90;999.90;;;12.00;79.30;;;;;;5036793;28;20118;-86
2023/05/26 00:17:50;;;;;;;1999.90;999.90;;;12.10;79.30;;;;;;5038185;28;20094;-86
2023/05/26 00:20:16;;;;;;;794.42;527.60;;;12.00;79.10;;;;;;5033528;28;20196;-87
2023/05/26 00:22:42;;;;;;;1999.90;999.90;;;12.10;78.50;;;;;;5038623;28;20072;-87
2023/05/26 00:25:08;;;;;;;1999.90;999.90;;;12.10;78.10;;;;;;5040116;28;20080;-87
2023/05/26 00:27:33;;;;;;;1999.90;999.90;;;12.10;78.40;;;;;;5034947;28;20037;-87
2023/05/26 00:29:59;;;;;;;1999.90;999.90;;;12.10;77.50;;;;;;5042607;28;20029;-86
2023/05/26 00:32:25;;;;;;;1999.90;999.90;;;12.10;77.70;;;;;;5017019;28;20041;-87
2023/05/26 00:34:51;;;;;;;1999.90;999.90;;;11.90;78.40;;;;;;5015545;28;20132;-87
2023/05/26 00:37:17;;;;;;;1999.90;999.90;;;11.80;79.60;;;;;;5017213;28;20613;-87
2023/05/26 00:39:43;;;;;;;1999.90;999.90;;;11.70;79.20;;;;;;5031074;28;20124;-88
2023/05/26 00:42:09;;;;;;;1999.90;999.90;;;11.50;80.20;;;;;;5036529;28;20511;-87
2023/05/26 00:44:34;;;;;;;1999.90;999.90;;;11.50;80.50;;;;;;5034860;28;20931;-86
2023/05/26 00:47:00;;;;;;;1999.90;999.90;;;11.60;80.60;;;;;;5030564;28;20512;-86
2023/05/26 00:49:26;;;;;;;1999.90;999.90;;;11.60;80.20;;;;;;5057274;28;20041;-86
2023/05/26 00:51:52;;;;;;;1999.90;999.90;;;11.70;79.30;;;;;;5031355;28;20037;-86
2023/05/26 00:54:19;;;;;;;1999.90;999.90;;;11.60;79.60;;;;;;5019601;28;20038;-86
2023/05/26 00:56:45;;;;;;;1999.90;999.90;;;11.60;79.70;;;;;;5037098;28;20673;-86
2023/05/26 00:59:11;;;;;;;1999.90;999.90;;;11.60;80.30;;;;;;5031048;28;20037;-86
2023/05/26 01:01:38;;;;;;;1559.57;805.90;;;11.60;79.70;;;;;;5031111;28;20052;-87
2023/05/26 01:04:04;;;;;;;1999.90;999.90;;;11.60;79.40;;;;;;5014102;28;20116;-86
2023/05/26 01:06:31;;;;;;;1058.88;554.55;;;11.70;78.70;;;;;;5035194;28;20052;-87
2023/05/26 01:08:58;;;;;;;1999.90;999.90;;;11.70;78.80;;;;;;5033314;28;20480;-85
2023/05/26 01:11:26;;;;;;;1999.90;999.90;;;11.70;78.00;;;;;;5032589;28;20057;-85
2023/05/26 01:14:01;;;;;;;1999.90;999.90;;;11.80;77.70;;;;;;5034626;28;20030;-86
2023/05/26 01:16:39;;;;;;;1999.90;999.90;;;11.60;78.40;;;;;;5039040;28;20026;-87
2023/05/26 01:19:52;;;;;;;1999.90;999.90;;;11.60;78.20;;;;;;5030011;28;20156;-87
2023/05/26 01:22:42;;;;;;;1999.90;999.90;;;11.50;78.30;;;;;;5038547;28;20025;-86
2023/05/26 01:25:25;;;;;;;1999.90;999.90;;;11.50;78.30;;;;;;5033652;28;20037;-88
2023/05/26 01:28:10;;;;;;;1999.90;999.90;;;11.40;79.00;;;;;;5034255;28;20041;-86
2023/05/26 01:30:38;;;;;;;1999.90;999.90;;;11.20;79.60;;;;;;5029002;28;20029;-86
2023/05/26 01:33:03;;;;;;;1999.90;999.90;;;11.20;79.60;;;;;;5016203;28;20036;-87
2023/05/26 01:35:29;;;;;;;1999.90;999.90;;;11.10;80.20;;;;;;5032777;28;20036;-86
2023/05/26 01:37:56;;;;;;;1999.90;999.90;;;11.00;80.20;;;;;;5032695;28;20112;-85
2023/05/26 01:40:22;;;;;;;1999.90;999.90;;;11.10;80.00;;;;;;5016288;28;20036;-86
2023/05/26 01:43:23;;;;;;;1999.90;999.90;;;11.20;79.40;;;;;;5033909;28;20029;-86
2023/05/26 01:45:59;;;;;;;1999.90;999.90;;;11.00;79.60;;;;;;5033212;28;20033;-86
2023/05/26 01:48:26;;;;;;;1999.90;999.90;;;10.90;80.00;;;;;;5036743;28;20089;-86
2023/05/26 01:51:00;;;;;;;1999.90;999.90;;;10.90;80.30;;;;;;5032706;28;20068;-87
2023/05/26 01:53:35;;;;;;;1999.90;999.90;;;10.90;80.70;;;;;;5038689;28;20516;-88
2023/05/26 01:56:02;;;;;;;1999.90;999.90;;;10.80;80.40;;;;;;5036279;28;20510;-86
2023/05/26 01:58:29;;;;;;;1999.90;999.90;;;10.80;80.30;;;;;;5031931;28;20163;-86
2023/05/26 02:00:54;;;;;;;1999.90;999.90;;;10.80;80.40;;;;;;5034576;28;20040;-86
2023/05/26 02:03:21;;;;;;;1999.90;999.90;;;10.80;80.60;;;;;;5032852;28;20304;-87
2023/05/26 02:05:47;;;;;;;1999.90;999.90;;;10.80;80.40;;;;;;5036202;28;20044;-87
2023/05/26 02:08:12;;;;;;;1999.90;999.90;;;10.80;79.80;;;;;;5037046;28;20026;-86
2023/05/26 02:10:39;;;;;;;1999.90;999.90;;;10.90;79.80;;;;;;5014410;28;20055;-86
2023/05/26 02:13:06;;;;;;;1999.90;999.90;;;10.90;79.70;;;;;;5035963;28;20061;-87
2023/05/26 02:15:31;;;;;;;1999.90;999.90;;;10.80;80.60;;;;;;5033523;28;20044;-86
2023/05/26 02:17:57;;;;;;;1999.90;999.90;;;10.70;80.50;;;;;;5031868;28;20671;-87
2023/05/26 02:20:26;;;;;;;1999.90;999.90;;;10.70;81.10;;;;;;5051473;28;20049;-87
2023/05/26 02:22:52;;;;;;;1999.90;999.90;;;10.70;81.00;;;;;;5034566;28;20068;-86
2023/05/26 02:25:18;;;;;;;1999.90;999.90;;;10.60;81.30;;;;;;5029986;28;20056;-86
2023/05/26 02:27:43;;;;;;;1999.90;999.90;;;10.60;81.30;;;;;;5036594;28;20033;-86
2023/05/26 02:30:09;;;;;;;1999.90;999.90;;;10.60;81.10;;;;;;5029865;28;20543;-87
2023/05/26 02:32:36;;;;;;;1999.90;999.90;;;10.60;81.00;;;;;;5037912;28;20037;-87
2023/05/26 02:35:03;;;;;;;1999.90;999.90;;;10.50;81.30;;;;;;5034927;28;20496;-86
2023/05/26 02:37:29;;;;;;;1999.90;999.90;;;10.50;81.80;;;;;;5052168;28;20059;-87
2023/05/26 02:39:55;;;;;;;1999.90;999.90;;;10.50;81.30;;;;;;5037769;28;20033;-86
2023/05/26 02:42:21;;;;;;;1999.90;999.90;;;10.50;81.70;;;;;;5031955;28;20048;-88
2023/05/26 02:44:46;;;;;;;1999.90;999.90;;;10.40;81.80;;;;;;5036832;28;20042;-87
2023/05/26 02:47:12;;;;;;;1999.90;999.90;;;10.40;81.90;;;;;;5037519;28;21191;-88
2023/05/26 02:49:38;;;;;;;543.85;514.22;;;10.40;81.90;;;;;;5032769;28;20053;-85
2023/05/26 02:52:04;;;;;;;1999.90;999.90;;;10.40;81.70;;;;;;5032143;28;20614;-87
2023/05/26 02:54:29;;;;;;;1999.90;999.90;;;10.50;81.50;;;;;;5032107;28;20044;-87
2023/05/26 02:56:55;;;;;;;1999.90;999.90;;;10.50;81.50;;;;;;5036134;28;20030;-86
2023/05/26 02:59:21;;;;;;;1999.90;999.90;;;10.50;81.10;;;;;;5037404;28;20053;-85
2023/05/26 03:01:46;;;;;;;1999.90;999.90;;;10.50;81.00;;;;;;5027802;28;20099;-86
2023/05/26 03:04:12;;;;;;;1999.90;999.90;;;10.40;81.50;;;;;;5037403;28;20123;-86
2023/05/26 03:06:38;;;;;;;1999.90;999.90;;;10.40;81.40;;;;;;5033361;28;20034;-87
2023/05/26 03:09:04;;;;;;;900.33;629.03;;;10.40;81.50;;;;;;5030641;28;20083;-88
2023/05/26 03:11:30;;;;;;;1999.90;999.90;;;10.40;81.10;;;;;;5059670;28;20083;-87
2023/05/26 03:13:55;;;;;;;1999.90;999.90;;;10.40;81.30;;;;;;5036400;28;20508;-87
2023/05/26 03:16:23;;;;;;;1999.90;999.90;;;10.40;81.70;;;;;;5036419;28;20038;-86
2023/05/26 03:18:49;;;;;;;1999.90;999.90;;;10.30;81.80;;;;;;5035405;28;20038;-86
2023/05/26 03:21:16;;;;;;;1999.90;999.90;;;10.30;81.70;;;;;;5033024;28;20037;-89
2023/05/26 03:23:42;;;;;;;1197.78;686.20;;;10.20;81.90;;;;;;5034845;28;20029;-86
2023/05/26 03:26:08;;;;;;;1999.90;999.90;;;10.30;82.20;;;;;;5046345;28;20085;-87
2023/05/26 03:28:34;;;;;;;1999.90;999.90;;;10.20;81.90;;;;;;5055146;28;20037;-87
2023/05/26 03:30:59;;;;;;;964.53;690.60;;;10.10;82.30;;;;;;5059234;28;20065;-87
2023/05/26 03:33:25;;;;;;;1231.07;718.05;;;10.10;82.50;;;;;;5055208;28;20021;-90
2023/05/26 03:35:51;;;;;;;1999.90;999.90;;;10.10;82.60;;;;;;5057600;28;20101;-88
2023/05/26 03:38:17;;;;;;;946.13;672.22;;;10.10;82.40;;;;;;5060675;28;20041;-88
2023/05/26 03:40:43;;;;;;;1999.90;999.90;;;10.10;82.60;;;;;;5038314;28;20098;-88
2023/05/26 03:43:09;;;;;;;1999.90;999.90;;;10.10;82.50;;;;;;5060185;28;20052;-89
2023/05/26 03:45:35;;;;;;;1999.90;999.90;;;10.20;82.10;;;;;;5048267;28;20029;-87
2023/05/26 03:48:01;;;;;;;1999.90;999.90;;;10.10;82.20;;;;;;5059258;28;20109;-87
2023/05/26 03:50:26;;;;;;;1999.90;999.90;;;10.10;82.40;;;;;;5058089;28;20041;-87
2023/05/26 03:52:52;;;;;;;1266.57;752.10;;;10.10;82.30;;;;;;5051164;28;20045;-88
2023/05/26 03:55:18;;;;;;;1616.80;860.10;;;10.10;82.30;;;;;;5046718;28;20063;-87
2023/05/26 03:57:44;;;;;;;1999.90;999.90;;;10.10;82.40;;;;;;5058620;28;20033;-86
2023/05/26 04:00:11;;;;;;;1999.90;999.90;;;10.10;82.20;;;;;;5058557;28;20033;-86
2023/05/26 04:02:36;;;;;;;1999.90;999.90;;;10.20;82.10;;;;;;5056745;28;20098;-87
2023/05/26 04:05:03;;;;;;;1999.90;999.90;;;10.20;81.80;;;;;;5057290;28;20033;-86
2023/05/26 04:07:28;;;;;;;664.65;629.35;;;10.30;81.80;;;;;;5049195;28;20029;-86
2023/05/26 04:09:54;;;;;;;1321.72;803.95;;;10.20;81.70;;;;;;5041205;28;20053;-87
2023/05/26 04:12:20;;;;;;;1999.90;999.90;;;10.30;81.70;;;;;;5036394;28;20059;-88
2023/05/26 04:14:46;;;;;;;958.50;683.38;;;10.30;81.10;;;;;;5038617;28;20049;-87
2023/05/26 04:17:11;;;;;;;1999.90;999.90;;;10.40;80.90;;;;;;5045805;28;20029;-85
2023/05/26 04:19:37;;;;;;;1999.90;999.90;;;10.50;80.70;;;;;;5046003;28;20385;-85
2023/05/26 04:22:03;;;;;;;1999.90;999.90;;;10.50;81.60;;;;;;5036752;28;20432;-88
2023/05/26 04:24:28;;;;;;;1330.50;811.90;;;10.50;80.80;;;;;;5042510;28;20113;-88
2023/05/26 04:26:54;;;;;;;1999.90;999.90;;;10.60;80.70;;;;;;5050009;28;20396;-87
2023/05/26 04:29:20;;;;;;;1999.90;999.90;;;10.60;80.30;;;;;;5036102;28;20056;-88
2023/05/26 04:31:46;;;;;;;1999.90;999.90;;;10.60;80.20;;;;;;5034195;28;20041;-89
2023/05/26 04:34:12;;;;;;;1019.63;741.65;;;10.70;80.10;;;;;;5037031;28;20041;-86
2023/05/26 04:36:38;;;;;;;1999.90;999.90;;;10.80;79.80;;;;;;5034870;28;20040;-86
2023/05/26 04:39:04;;;;;;;1018.92;740.53;;;10.80;79.00;;;;;;5034079;28;20037;-88
2023/05/26 04:41:30;;;;;;;739.30;698.53;;;10.90;79.00;;;;;;5038699;28;20029;-91
2023/05/26 04:43:55;;;;;;;701.88;662.88;;;10.90;78.40;;;;;;5033865;28;20091;-88
2023/05/26 04:46:21;;;;;;;1999.90;999.90;;;11.00;78.40;;;;;;5036835;28;20081;-87
2023/05/26 04:48:47;;;;;;;1038.53;758.92;;;11.10;78.40;;;;;;5034856;28;20568;-88
2023/05/26 04:51:12;;;;;;;1044.45;765.25;;;11.10;78.40;;;;;;5031098;28;20609;-87
2023/05/26 04:53:38;;;;;;;695.55;656.95;;;11.20;77.60;;;;;;5035632;28;20040;-87
2023/05/26 04:56:05;;;;;;;712.40;674.45;;;11.30;77.30;;;;;;5031804;28;20032;-87
2023/05/26 04:58:32;;;;;;;726.58;686.53;;;11.30;77.30;;;;;;5032330;28;20034;-86
2023/05/26 05:00:58;;;;;;;757.45;714.72;;;11.30;77.20;;;;;;5035841;28;20044;-85
2023/05/26 05:03:24;;;;;;;739.80;696.88;;;11.40;76.80;;;;;;5028315;28;20037;-86
2023/05/26 05:05:50;;;;;;;1347.47;827.42;;;11.40;77.00;;;;;;5030157;28;20110;-91
2023/05/26 05:08:17;;;;;;;1186.22;674.13;;;11.50;76.70;;;;;;5037003;28;20485;-86
2023/05/26 05:10:43;;;;;;;857.97;587.63;;;11.50;76.60;;;;;;5035338;28;20084;-86
2023/05/26 05:13:08;;;;;;;1337.50;818.17;;;11.50;76.30;;;;;;5019253;28;20028;-88
2023/05/26 05:15:34;;;;;;;1999.90;999.90;;;11.60;76.10;;;;;;5030477;28;20071;-86
2023/05/26 05:18:02;;;;;;;1999.90;999.90;;;11.60;75.50;;;;;;5034502;28;20077;-93
2023/05/26 05:20:27;;;;;;;689.92;651.13;;;11.70;75.90;;;;;;5033413;28;20525;-89
2023/05/26 05:22:54;;;;;;;648.70;612.78;;;11.80;75.70;;;;;;5014649;28;20041;-83
2023/05/26 05:25:20;;;;;;;974.13;696.17;;;11.80;75.20;;;;;;5031882;28;20026;-83
2023/05/26 05:27:46;;;;;;;1008.17;728.05;;;11.80;75.60;;;;;;5034135;28;20025;-85
2023/05/26 05:30:11;;;;;;;1999.90;999.90;;;11.80;75.40;;;;;;5030072;28;20398;-83
2023/05/26 05:32:37;;;;;;;1068.22;785.17;;;12.00;74.40;;;;;;5035838;28;20421;-84
2023/05/26 05:35:04;;;;;;;612.42;575.25;;;12.00;75.00;;;;;;5034226;28;20473;-88
2023/05/26 05:37:30;;;;;;;574.97;538.42;;;12.10;75.00;;;;;;5033628;28;20497;-85
2023/05/26 05:39:55;;;;;;;1999.90;999.90;;;12.20;74.40;;;;;;5033221;28;20069;-86
2023/05/26 05:42:24;;;;;;;1999.90;999.90;;;12.10;74.10;;;;;;5028552;28;20037;-87
2023/05/26 05:44:50;;;;;;;898.33;623.28;;;12.20;74.90;;;;;;5015324;28;20033;-87
2023/05/26 05:47:16;;;;;;;769.45;721.97;;;12.30;73.70;;;;;;5033561;28;20029;-89
2023/05/26 05:49:41;;;;;;;1999.90;999.90;;;12.40;73.60;;;;;;5030149;28;20401;-88
2023/05/26 05:52:07;;;;;;;1999.90;999.90;;;12.40;74.60;;;;;;5036477;28;20504;-87
2023/05/26 05:54:33;;;;;;;1999.90;999.90;;;12.40;73.40;;;;;;5031223;28;20488;-91
2023/05/26 05:56:59;;;;;;;1999.90;999.90;;;12.40;74.10;;;;;;5031525;28;20040;-86
2023/05/26 05:59:25;;;;;;;1999.90;999.90;;;12.50;74.10;;;;;;5030033;28;20060;-88
2023/05/26 06:01:50;;;;;;;1999.90;999.90;;;12.60;73.60;;;;;;5015470;28;20026;-89
2023/05/26 06:04:16;;;;;;;1999.90;999.90;;;12.60;73.50;;;;;;5037219;28;20033;-87
2023/05/26 06:06:42;;;;;;;1999.90;999.90;;;12.70;73.50;;;;;;5031292;28;20087;-88
2023/05/26 06:09:07;;;;;;;1021.55;738.20;;;12.80;73.40;;;;;;5011268;28;20040;-87
2023/05/26 06:11:33;;;;;;;1999.90;999.90;;;12.90;72.90;;;;;;5034767;28;20116;-87
2023/05/26 06:13:59;;;;;;;1339.88;817.40;;;13.00;73.10;;;;;;5031798;28;20426;-86
2023/05/26 06:16:25;;;;;;;1999.90;999.90;;;13.10;73.10;;;;;;5035471;28;20082;-85
2023/05/26 06:18:51;;;;;;;1999.90;999.90;;;13.10;72.30;;;;;;5036392;28;20068;-87
2023/05/26 06:21:16;;;;;;;1999.90;999.90;;;13.10;73.10;;;;;;5032394;28;20033;-87
2023/05/26 06:23:42;;;;;;;1999.90;999.90;;;13.20;72.50;;;;;;5032166;28;20458;-90
2023/05/26 06:26:08;;;;;;;703.78;660.47;;;13.30;73.30;;;;;;5030817;28;20500;-87
2023/05/26 06:28:33;;;;;;;1999.90;999.90;;;13.40;71.90;;;;;;5030529;28;20357;-86
2023/05/26 06:30:59;;;;;;;675.42;631.45;;;13.50;72.20;;;;;;5036574;28;20440;-87
2023/05/26 06:33:25;;;;;;;1999.90;999.90;;;13.60;73.20;;;;;;5030766;28;20047;-87
2023/05/26 06:35:51;;;;;;;1999.90;999.90;;;13.60;71.50;;;;;;5034823;28;20044;-88
2023/05/26 06:38:16;;;;;;;1999.90;999.90;;;13.70;71.60;;;;;;5035135;28;20026;-90
2023/05/26 06:40:42;;;;;;;653.08;610.88;;;13.80;73.20;;;;;;5033203;28;20079;-91
2023/05/26 06:43:08;;;;;;;1999.90;999.90;;;13.70;71.00;;;;;;5033971;28;20756;-87
2023/05/26 06:45:33;;;;;;;1999.90;999.90;;;13.70;73.00;;;;;;5035581;28;20087;-86
2023/05/26 06:47:59;;;;;;;1586.72;830.38;;;13.90;71.20;;;;;;5033455;28;20064;-88
2023/05/26 06:50:25;;;;;;;1999.90;999.90;;;14.00;71.70;;;;;;5032466;28;20060;-87
2023/05/26 06:52:51;;;;;;;605.88;566.35;;;14.10;71.90;;;;;;5033770;28;20040;-89
2023/05/26 06:55:19;;;;;;;1999.90;999.90;;;14.20;70.20;;;;;;5029773;28;20036;-89
2023/05/26 06:57:45;;;;;;;1999.90;999.90;;;14.30;69.80;;;;;;5032515;28;20037;-88
2023/05/26 07:00:11;;;;;;;1999.90;999.90;;;14.50;70.80;;;;;;5027709;28;20065;-90
2023/05/26 07:02:38;;;;;;;1999.90;999.90;;;14.30;69.80;;;;;;5035483;28;20603;-90
2023/05/26 07:05:04;;;;;;;1999.90;999.90;;;14.30;70.20;;;;;;5034278;28;20025;-89
2023/05/26 07:07:30;;;;;;;1999.90;999.90;;;14.50;69.10;;;;;;5034032;28;20044;-90
2023/05/26 07:09:56;;;;;;;1999.90;999.90;;;14.70;67.50;;;;;;5033283;28;20033;-90
2023/05/26 07:12:22;;;;;;;1999.90;999.90;;;14.80;68.10;;;;;;5016089;28;20072;-91
2023/05/26 07:14:48;;;;;;;1999.90;999.90;;;14.80;67.90;;;;;;5010122;28;20030;-89
2023/05/26 07:17:14;;;;;;;1999.90;999.90;;;15.00;68.50;;;;;;5027162;28;20049;-88
2023/05/26 07:19:40;;;;;;;1999.90;999.90;;;15.10;68.30;;;;;;5033318;28;20048;-86
2023/05/26 07:22:06;;;;;;;1999.90;999.90;;;15.30;67.40;;;;;;5034258;28;20367;-85
2023/05/26 07:24:31;;;;;;;1999.90;999.90;;;15.30;65.80;;;;;;5030700;28;20048;-87
2023/05/26 07:26:57;;;;;;;1999.90;999.90;;;15.20;66.80;;;;;;5028562;28;20036;-87
2023/05/26 07:29:23;;;;;;;1999.90;999.90;;;15.30;67.00;;;;;;5031392;28;20037;-78
2023/05/26 07:31:49;;;;;;;1999.90;999.90;;;15.40;65.80;;;;;;5031417;28;20036;-76
2023/05/26 07:34:14;;;;;;;1999.90;999.90;;;15.60;66.10;;;;;;5031004;28;20174;-78
2023/05/26 07:36:40;;;;;;;1999.90;999.90;;;15.70;66.70;;;;;;5045228;28;20029;-76
2023/05/26 07:39:06;;;;;;;1999.90;999.90;;;15.90;68.00;;;;;;5026742;28;20474;-78
2023/05/26 07:41:34;;;;;;;1999.90;999.90;;;16.00;65.70;;;;;;5030821;28;20029;-79
2023/05/26 07:43:59;;;;;;;1999.90;999.90;;;16.30;65.60;;;;;;5027634;28;20036;-79
2023/05/26 07:46:25;;;;;;;1999.90;999.90;;;16.30;64.10;;;;;;5028015;28;20109;-78
2023/05/26 07:48:51;;;;;;;1999.90;999.90;;;16.30;64.40;;;;;;5028765;28;20159;-78
2023/05/26 07:51:16;;;;;;;1999.90;999.90;;;16.30;65.70;;;;;;5030492;28;20029;-78
2023/05/26 07:53:42;;;;;;;1999.90;999.90;;;16.40;63.40;;;;;;5031224;28;20534;-79
2023/05/26 07:56:08;;;;;;;1999.90;999.90;;;16.60;65.20;;;;;;5029281;28;20030;-78
2023/05/26 07:58:35;;;;;;;1999.90;999.90;;;16.50;62.70;;;;;;5034238;28;20025;-77
2023/05/26 08:01:02;;;;;;;1999.90;999.90;;;16.70;63.20;;;;;;5050744;28;20520;-78
2023/05/26 08:03:28;;;;;;;1999.90;999.90;;;16.50;64.10;;;;;;5016948;28;20044;-78
2023/05/26 08:05:53;;;;;;;1999.90;999.90;;;16.70;63.30;;;;;;5038454;28;20032;-78
2023/05/26 08:08:19;;;;;;;1999.90;999.90;;;16.80;63.60;;;;;;5032950;28;20064;-78
2023/05/26 08:10:45;;;;;;;1999.90;999.90;;;16.90;62.90;;;;;;5013438;28;20033;-83
2023/05/26 08:13:10;;;;;;;1999.90;999.90;;;16.80;63.30;;;;;;5016973;28;20420;-84
2023/05/26 08:15:36;;;;;;;1999.90;999.90;;;17.00;63.90;;;;;;5033002;28;20586;-79
2023/05/26 08:18:02;;;;;;;1999.90;999.90;;;17.20;63.10;;;;;;5036593;28;20030;-81
2023/05/26 08:20:27;;;;;;;1999.90;999.90;;;17.20;61.90;;;;;;5014956;28;20054;-83
2023/05/26 08:22:56;;;;;;;1999.90;999.90;;;17.30;60.80;;;;;;5032061;28;20422;-88
2023/05/26 08:25:21;;;;;;;1999.90;999.90;;;17.50;61.30;;;;;;5034029;28;20037;-76
2023/05/26 08:27:47;;;;;;;1999.90;999.90;;;17.60;61.70;;;;;;5030425;28;20035;-77
2023/05/26 08:30:13;;;;;;;1999.90;999.90;;;17.90;59.70;;;;;;5016487;28;20026;-77
2023/05/26 08:32:38;;;;;;;1999.90;999.90;;;17.80;61.40;;;;;;5034852;28;20028;-81
2023/05/26 08:35:04;;;;;;;1999.90;999.90;;;17.90;60.50;;;;;;5018653;28;20116;-81
2023/05/26 08:37:30;;;;;;;1999.90;999.90;;;17.70;57.70;;;;;;5032465;28;20038;-75
2023/05/26 08:39:57;;;;;;;1999.90;999.90;;;17.50;61.60;;;;;;5037460;28;20033;-86
2023/05/26 08:42:29;;;;;;;1999.90;999.90;;;17.80;60.30;;;;;;5033099;28;20021;-76
2023/05/26 08:44:57;;;;;;;1999.90;999.90;;;18.00;61.60;;;;;;5029256;28;20024;-76
2023/05/26 08:47:23;;;;;;;1999.90;999.90;;;18.30;58.10;;;;;;5034721;28;20029;-76
2023/05/26 08:50:03;;;;;;;1999.90;999.90;;;18.60;57.10;;;;;;5030283;28;20406;-76
2023/05/26 08:52:29;;;;;;;;;;;18.80;58.00;;;;;;5034391;28;20104;-76
2023/05/26 08:54:55;;;;;;;1999.90;999.90;;;19.10;56.70;;;;;;5031553;28;20007;-76
2023/05/26 08:57:21;;;;;;;1999.90;999.90;;;19.50;56.40;;;;;;5034133;28;20083;-76
2023/05/26 08:59:48;;;;;;;1999.90;999.90;;;19.30;54.90;;;;;;5032366;28;20124;-77
2023/05/26 09:02:14;;;;;;;1999.90;999.90;;;19.60;56.30;;;;;;5026761;28;20033;-76
2023/05/26 09:04:40;;;;;;;1999.90;999.90;;;19.80;56.40;;;;;;5035898;28;20030;-76
2023/05/26 09:07:06;;;;;;;1999.90;999.90;;;19.90;52.50;;;;;;5031519;28;20070;-76
2023/05/26 09:09:32;;;;;;;1999.90;999.90;;;20.10;54.40;;;;;;5030300;28;20033;-76
2023/05/26 09:11:58;;;;;;;1999.90;999.90;;;20.10;52.60;;;;;;5031317;28;20031;-76
2023/05/26 09:14:24;;;;;;;1999.90;999.90;;;20.00;52.00;;;;;;5028404;28;20091;-77
2023/05/26 09:16:52;;;;;;;1999.90;999.90;;;20.00;53.30;;;;;;5034820;28;20397;-76
2023/05/26 09:19:18;;;;;;;1999.90;999.90;;;20.10;52.20;;;;;;5035587;28;20122;-76
2023/05/26 09:21:48;;;;;;;1999.90;999.90;;;20.30;51.10;;;;;;5030883;28;20067;-84
2023/05/26 09:24:18;;;;;;;1999.90;999.90;;;20.10;55.40;;;;;;5031824;28;20060;-87
2023/05/26 09:26:46;;;;;;;1999.90;999.90;;;20.80;51.80;;;;;;5012432;28;20445;-75
2023/05/26 09:29:12;;;;;;;1999.90;999.90;;;20.90;51.80;;;;;;5031435;28;20075;-76
2023/05/26 09:31:43;;;;;;;1999.90;999.90;;;21.00;49.30;;;;;;5035455;28;20427;-75
2023/05/26 09:34:10;;;;;;;1999.90;999.90;;;21.50;50.10;;;;;;5030793;28;20044;-77
2023/05/26 09:36:37;;;;;;;1999.90;999.90;;;21.50;49.20;;;;;;5014139;28;20043;-76
2023/05/26 09:39:05;;;;;;;1999.90;999.90;;;21.30;49.40;;;;;;5033212;28;20131;-77
2023/05/26 09:41:41;;;;;;;1999.90;999.90;;;21.40;49.20;;;;;;5013518;28;20041;-83
2023/05/26 09:44:12;;;;;;;1999.90;999.90;;;21.30;48.50;;;;;;5028836;28;20029;-76
2023/05/26 09:46:39;;;;;;;1999.90;999.90;;;21.20;47.90;;;;;;5028491;28;20029;-76
2023/05/26 09:49:14;;;;;;;1999.90;999.90;;;21.20;48.40;;;;;;5029212;28;20498;-89
2023/05/26 09:51:41;;;;;;;1999.90;999.90;;;21.50;47.70;;;;;;5033990;28;20546;-77
2023/05/26 09:54:10;;;;;;;1999.90;999.90;;;21.60;47.10;;;;;;5032173;28;20120;-77
2023/05/26 09:57:01;;;;;;;1999.90;999.90;;;21.80;47.00;;;;;;5032959;28;20680;-82
2023/05/26 09:59:36;;;;;;;1999.90;999.90;;;22.10;49.20;;;;;;5029821;28;20046;-76
2023/05/26 10:02:06;;;;;;;1999.90;999.90;;;22.70;45.40;;;;;;5035761;28;20116;-76
2023/05/26 10:04:31;;;;;;;1999.90;999.90;;;22.60;45.70;;;;;;5015056;28;20493;-77
2023/05/26 10:06:58;;;;;;;1999.90;999.90;;;22.50;47.40;;;;;;5046419;28;20029;-88
2023/05/26 10:09:26;;;;;;;1999.90;999.90;;;22.50;47.70;;;;;;5033459;28;20101;-91
2023/05/26 10:11:55;;;;;;;1999.90;999.90;;;22.70;46.50;;;;;;5013232;28;20041;-88
2023/05/26 10:14:21;;;;;;;1999.90;999.90;;;22.30;45.20;;;;;;5031348;28;20417;-91
2023/05/26 10:16:47;;;;;;;1999.90;999.90;;;22.50;46.90;;;;;;5046054;28;20133;-91
2023/05/26 10:19:13;;;;;;;1999.90;999.90;;;22.80;45.20;;;;;;5029894;28;20057;-91
2023/05/26 10:21:44;;;;;;;1999.90;999.90;;;22.90;45.80;;;;;;5029929;28;20995;-91
2023/05/26 10:24:20;;;;;;;1999.90;999.90;;;22.80;43.70;;;;;;5037892;28;20052;-91
2023/05/26 10:27:14;;;;;;;1999.90;999.90;;;22.80;45.70;;;;;;5033623;28;20031;-92
2023/05/26 10:29:48;;;;;;;1999.90;999.90;;;22.90;43.50;;;;;;5034535;28;20051;-92
2023/05/26 10:32:51;;;;;;;1999.90;999.90;;;22.90;44.60;;;;;;5030913;28;20104;-92
2023/05/26 10:35:23;;;;;;;1999.90;999.90;;;23.40;43.50;;;;;;5037430;28;20100;-91
2023/05/26 10:37:53;;;;;;;1999.90;999.90;;;23.50;42.30;;;;;;5029679;28;20099;-92
2023/05/26 10:40:30;;;;;;;1999.90;999.90;;;23.80;44.50;;;;;;5031036;28;20037;-91
2023/05/26 10:43:23;;;;;;;1999.90;999.90;;;23.80;38.90;;;;;;5039984;28;20038;-91
2023/05/26 10:46:00;;;;;;;1999.90;999.90;;;23.40;41.10;;;;;;5028083;28;20401;-92
2023/05/26 10:48:40;;;;;;;1999.90;999.90;;;23.70;39.00;;;;;;5035243;28;20031;-91
2023/05/26 10:51:07;;;;;;;;;;;23.60;41.30;;;;;;5036225;28;20033;-91
2023/05/26 10:53:41;;;;;;;1999.90;999.90;;;24.20;41.20;;;;;;5034058;28;19958;-92
2023/05/26 10:56:08;;;;;;;1999.90;999.90;;;24.60;37.20;;;;;;5033111;28;20033;-92
2023/05/26 10:58:37;;;;;;;1999.90;999.90;;;24.20;37.60;;;;;;5033328;28;20049;-92
2023/05/26 11:01:06;;;;;;;1999.90;999.90;;;24.60;39.70;;;;;;5032445;28;20045;-91
2023/05/26 11:03:36;;;;;;;1999.90;999.90;;;25.10;38.50;;;;;;5032944;28;20050;-92
2023/05/26 11:06:03;;;;;;;1999.90;999.90;;;25.50;37.60;;;;;;5033548;28;20400;-91
2023/05/26 11:08:37;;;;;;;1999.90;999.90;;;26.10;36.30;;;;;;5038535;28;20025;-91
2023/05/26 11:11:08;;;;;;;1999.90;999.90;;;26.70;35.20;;;;;;5031968;28;20025;-91
2023/05/26 11:13:49;;;;;;;1999.90;999.90;;;26.40;37.70;;;;;;5027981;28;20132;-91
2023/05/26 11:16:25;;;;;;;1999.90;999.90;;;26.20;34.50;;;;;;5029795;28;20026;-91
2023/05/26 11:18:57;;;;;;;1999.90;999.90;;;26.40;37.00;;;;;;5026568;28;20065;-91
2023/05/26 11:21:27;;;;;;;1999.90;999.90;;;26.70;34.80;;;;;;5033204;28;20033;-91
2023/05/26 11:23:57;;;;;;;1999.90;999.90;;;27.30;32.50;;;;;;5030830;28;20025;-91
2023/05/26 11:26:25;;;;;;;1999.90;999.90;;;27.80;32.40;;;;;;5032157;28;20029;-92
2023/05/26 11:28:52;;;;;;;1999.90;999.90;;;27.30;29.90;;;;;;5030208;28;20034;-92
2023/05/26 11:31:21;;;;;;;1999.90;999.90;;;27.10;30.70;;;;;;5032149;28;20024;-91
2023/05/26 11:33:47;;;;;;;1999.90;999.90;;;28.30;29.40;;;;;;5034711;28;20044;-92
2023/05/26 11:36:17;;;;;;;1999.90;999.90;;;28.20;28.80;;;;;;5032591;28;20041;-92
2023/05/26 11:38:43;;;;;;;;;;;27.80;28.80;;;;;;5033748;28;20028;-91
2023/05/26 11:41:11;;;;;;;1999.90;999.90;;;27.30;29.90;;;;;;5035786;28;19917;-91
2023/05/26 11:43:38;;;;;;;1999.90;999.90;;;27.00;31.70;;;;;;5029384;28;20025;-91
2023/05/26 11:46:09;;;;;;;1999.90;999.90;;;27.50;32.00;;;;;;5032114;28;20052;-91
2023/05/26 11:48:39;;;;;;;1999.90;999.90;;;27.50;34.00;;;;;;5037637;28;20017;-92
2023/05/26 11:51:10;;;;;;;1999.90;999.90;;;27.30;29.80;;;;;;5042349;28;20025;-92
2023/05/26 11:53:36;;;;;;;1999.90;999.90;;;27.80;31.20;;;;;;5033705;28;20037;-91
2023/05/26 11:56:05;;;;;;;1999.90;999.90;;;28.90;29.30;;;;;;5033369;28;20124;-91
2023/05/26 11:58:36;;;;;;;1999.90;999.90;;;27.90;29.50;;;;;;5034419;28;20128;-91
2023/05/26 12:01:02;;;;;;;1999.90;999.90;;;28.30;28.90;;;;;;5021539;28;20029;-91
2023/05/26 12:03:30;;;;;;;1999.90;999.90;;;28.10;29.80;;;;;;5035428;28;20033;-90